KEBA

Elbert County-Patz Field Airport

Elberton, Georgia, USA
METAR KEBA 202335Z AUTO 00000KT 10SM CLR 28/24 A3004 RMK AO2 T02800239
Observed Flight Rules
Aug-20 @ 23:35 UTC (35 minutes ago) Visual Flight Rules
Visibility Clouds
10 miles
  • Clear skies
Temperatures Readings
Current 28°C / 82°F
Dewpoint 24°C / 75°F
Humidity 79%
Altimeter 30.04" Hg
Pressure 1017 hPa
Elevation 184
METAR KEBA 202335Z AUTO 00000KT 10SM CLR 28/24 A3004 RMK AO2 T02800239
Observed Flight Rules
Aug-20 @ 23:35 UTC
(35 minutes ago)
VFR
Clouds
  • Clear skies
Temperature Dewpoint
28°C / 82°F 24°C / 75°F
Humidity Altimeter Pressure
79% 30.04" Hg 1017 hPa